Kinsale, Virginia
Current Conditions -  °F | °C
As of 1:53 AM on Thursday 18 Dec 2014 (Local Time) from KNUI Reporting Station
Clear Clear  
Wind Chill:   Ceiling: Unl
Heat Index:   Visibility: 10mi
Dew Point: -5°   Wind: 7mph
Humidity: 55%   Direction: 320°NW
Pressure: 30.08"   Gusts: NA
Location:  38.03°N, 76.58°W
Report Text: KNUI 180653Z AUTO 32006KT 10SM CLR 03/M05 A3008 RMK AO2 SLP184 T00331050
Loading
Personal Weather Stations






























Interactive Weather Map New forecast layout! Learn more

10-Day Weather Forecast

Advertisements
Track Severe Weather on mobile